Waremme, Belgium
Current Conditions -  °F | °C
As of 9:50 PM on Saturday 25 Oct 2014 (Local Time) from EBLG Reporting Station
Scattered Clouds Scattered Clouds  
Wind Chill: 52°   Ceiling: Unl
Heat Index: 52°   Visibility: 4mi
Dew Point: 50°   Wind: 6mph
Humidity: 94%   Direction: 170°S
Pressure: 30.18"   Gusts: NA
Location:  50.7°N, 5.26°E
Report Text: EBLG 251950Z 17005KT 6000 SCT040 11/10 Q1022 NOSIG
Loading
Personal Weather Stations






























Interactive Weather Map
Tropical Storm Tracking
New forecast layout! Learn more

10-Day Weather Forecast

Advertisements
Track Severe Weather on mobile